Time;durP1;ratioP1;P1;durP2;ratioP2;P2;SDS_P1;SDS_P2;PMS_P1;PMS_P2;Temp;Humidity;BMP_temperature;BMP_pressure;BME280_temperature;BME280_humidity;BME280_pressure;Samples;Min_cycle;Max_cycle;Signal;HPM_P1;HPM_P2
2022/06/09 00:02:23;;;;;;;;;;;12.70;99.90;;;;;;5089550;28;20384;-76
2022/06/09 00:04:48;;;;;;;;;;;12.80;99.90;;;;;;5089373;28;19969;-76
2022/06/09 00:07:15;;;;;;;;;;;12.80;99.90;;;;;;5091534;28;20375;-76
2022/06/09 00:09:43;;;;;;;;;;;12.80;99.90;;;;;;5079877;28;20035;-76
2022/06/09 00:12:09;;;;;;;;;;;12.80;99.90;;;;;;5079585;28;19913;-76
2022/06/09 00:14:35;;;;;;;;;;;12.80;99.90;;;;;;5071049;28;20278;-76
2022/06/09 00:17:00;;;;;;;;;;;12.80;99.90;;;;;;5072172;28;19913;-76
2022/06/09 00:19:27;;;;;;;;;;;12.80;99.90;;;;;;5071892;28;19950;-77
2022/06/09 00:21:53;;;;;;;;;;;12.80;99.90;;;;;;5072457;28;19916;-77
2022/06/09 00:24:18;;;;;;;;;;;12.70;99.90;;;;;;5073086;28;19950;-77
2022/06/09 00:26:44;;;;;;;;;;;12.60;99.90;;;;;;5071737;28;19983;-78
2022/06/09 00:29:09;;;;;;;;;;;12.50;99.90;;;;;;5074949;28;19962;-78
2022/06/09 00:31:35;;;;;;;;;;;12.40;99.90;;;;;;5074178;28;19909;-78
2022/06/09 00:34:00;;;;;;;;;;;12.30;99.90;;;;;;5073395;28;20111;-78
2022/06/09 00:36:26;;;;;;;;;;;12.30;99.90;;;;;;5074611;28;20358;-78
2022/06/09 00:38:51;;;;;;;;;;;12.20;99.90;;;;;;5081822;28;19908;-77
2022/06/09 00:41:17;;;;;;;;;;;12.20;99.90;;;;;;5073737;28;19916;-77
2022/06/09 00:43:43;;;;;;;;;;;12.20;99.90;;;;;;5070962;28;19916;-76
2022/06/09 00:46:21;;;;;;;;;;;12.20;99.90;;;;;;5071357;28;19909;-77
2022/06/09 00:49:06;;;;;;;;;;;12.20;99.90;;;;;;5084440;28;19915;-77
2022/06/09 00:51:34;;;;;;;;;;;12.20;99.90;;;;;;5090463;28;19909;-76
2022/06/09 00:54:06;;;;;;;;;;;12.20;99.90;;;;;;5089310;28;20482;-77
2022/06/09 00:56:33;;;;;;;;;;;12.20;99.90;;;;;;5093723;28;19915;-77
2022/06/09 00:58:58;;;;;;;;;;;12.20;99.90;;;;;;5094837;28;19908;-77
2022/06/09 01:01:24;;;;;;;;;;;12.20;99.90;;;;;;5094301;28;20064;-76
2022/06/09 01:04:05;;;;;;;;;;;12.20;99.90;;;;;;5092904;28;19916;-76
2022/06/09 01:06:35;;;;;;;;;;;12.20;99.90;;;;;;5094687;28;20392;-77
2022/06/09 01:09:10;;;;;;;;;;;12.20;99.90;;;;;;5089065;28;19984;-76
2022/06/09 01:11:36;;;;;;;;;;;12.30;99.90;;;;;;5077951;28;19909;-77
2022/06/09 01:14:02;;;;;;;;;;;12.20;99.90;;;;;;5074506;28;20248;-77
2022/06/09 01:16:32;;;;;;;;;;;12.30;99.90;;;;;;5073425;28;19915;-77
2022/06/09 01:19:02;;;;;;;;;;;12.20;99.90;;;;;;5075058;28;19908;-77
2022/06/09 01:21:46;;;;;;;;;;;12.30;99.90;;;;;;5093877;28;19916;-77
2022/06/09 01:24:17;;;;;;;;;;;12.30;99.90;;;;;;5093372;28;19954;-77
2022/06/09 01:26:43;;;;;;;;;;;12.30;99.90;;;;;;5094258;28;19908;-77
2022/06/09 01:29:09;;;;;;;;;;;12.30;99.90;;;;;;5095332;28;19919;-76
2022/06/09 01:32:00;;;;;;;;;;;12.30;99.90;;;;;;5095290;28;19987;-78
2022/06/09 01:34:33;;;;;;;;;;;12.30;99.90;;;;;;5083304;28;19913;-78
2022/06/09 01:37:01;;;;;;;;;;;12.30;99.90;;;;;;5076347;28;19960;-76
2022/06/09 01:39:47;;;;;;;;;;;12.30;99.90;;;;;;5078785;28;19915;-76
2022/06/09 01:42:32;;;;;;;;;;;12.30;99.90;;;;;;5080217;28;19995;-77
2022/06/09 01:45:03;;;;;;;;;;;12.20;99.90;;;;;;5074889;28;19908;-78
2022/06/09 01:47:32;;;;;;;;;;;12.20;99.90;;;;;;5074319;28;19912;-77
2022/06/09 01:49:58;;;;;;;;;;;12.30;99.90;;;;;;5074675;28;19908;-77
2022/06/09 01:52:25;;;;;;;;;;;12.20;99.90;;;;;;5072765;28;19909;-77
2022/06/09 01:54:52;;;;;;;;;;;12.20;99.90;;;;;;5073491;28;19943;-77
2022/06/09 01:57:24;;;;;;;;;;;12.20;99.90;;;;;;5073030;28;19909;-77
2022/06/09 01:59:58;;;;;;;;;;;12.20;99.90;;;;;;5074185;28;19935;-77
2022/06/09 02:02:29;;;;;;;;;;;12.20;99.90;;;;;;5093475;28;19912;-77
2022/06/09 02:04:59;;;;;;;;;;;12.10;99.90;;;;;;5092648;28;19962;-77
2022/06/09 02:07:26;;;;;;;;;;;12.10;99.90;;;;;;5091729;28;19944;-77
2022/06/09 02:09:52;;;;;;;;;;;12.10;99.90;;;;;;5081186;28;20373;-77
2022/06/09 02:12:22;;;;;;;;;;;12.10;99.90;;;;;;5073592;28;19908;-76
2022/06/09 02:14:50;;;;;;;;;;;12.00;99.90;;;;;;5073553;28;20003;-77
2022/06/09 02:17:16;;;;;;;;;;;12.00;99.90;;;;;;5074007;28;19915;-77
2022/06/09 02:19:42;;;;;;;;;;;12.00;99.90;;;;;;5074013;28;20004;-77
2022/06/09 02:22:08;;;;;;;;;;;12.00;99.90;;;;;;5073342;28;19916;-77
2022/06/09 02:24:34;;;;;;;;;;;11.90;99.90;;;;;;5072582;28;19909;-75
2022/06/09 02:27:00;;;;;;;;;;;11.90;99.90;;;;;;5084847;28;20007;-76
2022/06/09 02:29:26;;;;;;;;;;;11.90;99.90;;;;;;5073924;28;20367;-75
2022/06/09 02:31:51;;;;;;;;;;;11.80;99.90;;;;;;5092678;28;20000;-76
2022/06/09 02:34:17;;;;;;;;;;;11.80;99.90;;;;;;5092346;28;19947;-76
2022/06/09 02:36:43;;;;;;;;;;;11.70;99.90;;;;;;5092966;28;19958;-76
2022/06/09 02:39:09;;;;;;;;;;;11.70;99.90;;;;;;5092980;28;19999;-76
2022/06/09 02:41:34;;;;;;;;;;;11.70;99.90;;;;;;5092579;28;20337;-76
2022/06/09 02:44:00;;;;;;;;;;;11.70;99.90;;;;;;5090890;28;19915;-76
2022/06/09 02:46:25;;;;;;;;;;;11.70;99.90;;;;;;5092839;28;19912;-76
2022/06/09 02:48:53;;;;;;;;;;;11.70;99.90;;;;;;5092714;28;20284;-76
2022/06/09 02:51:30;;;;;;;;;;;11.70;99.90;;;;;;5092220;28;20384;-76
2022/06/09 02:53:57;;;;;;;;;;;11.60;99.90;;;;;;5089800;28;20285;-76
2022/06/09 02:56:23;;;;;;;;;;;11.70;99.90;;;;;;5080455;28;19999;-77
2022/06/09 02:58:48;;;;;;;;;;;11.70;99.90;;;;;;5078469;28;20042;-76
2022/06/09 03:01:14;;;;;;;;;;;11.70;99.90;;;;;;5072745;28;20007;-76
2022/06/09 03:03:39;;;;;;;;;;;11.70;99.90;;;;;;5071120;28;19913;-77
2022/06/09 03:06:05;;;;;;;;;;;11.60;99.90;;;;;;5072782;28;19909;-76
2022/06/09 03:08:31;;;;;;;;;;;11.70;99.90;;;;;;5072648;28;19914;-76
2022/06/09 03:10:56;;;;;;;;;;;11.70;99.90;;;;;;5071565;28;19908;-76
2022/06/09 03:13:22;;;;;;;;;;;11.60;99.90;;;;;;5071732;28;19962;-77
2022/06/09 03:15:50;;;;;;;;;;;11.70;99.90;;;;;;5072770;28;19916;-77
2022/06/09 03:18:16;;;;;;;;;;;11.70;99.90;;;;;;5072495;28;19908;-76
2022/06/09 03:20:41;;;;;;;;;;;11.70;99.90;;;;;;5072611;28;19931;-76
2022/06/09 03:23:07;;;;;;;;;;;11.70;99.90;;;;;;5071427;28;20417;-76
2022/06/09 03:25:33;;;;;;;;;;;11.70;99.90;;;;;;5082585;28;20373;-76
2022/06/09 03:27:58;;;;;;;;;;;11.70;99.90;;;;;;5074533;28;19951;-76
2022/06/09 03:30:24;;;;;;;;;;;11.70;99.90;;;;;;5072587;28;19940;-76
2022/06/09 03:32:49;;;;;;;;;;;11.70;99.90;;;;;;5070533;28;19990;-76
2022/06/09 03:35:15;;;;;;;;;;;11.60;99.90;;;;;;5070363;28;19969;-76
2022/06/09 03:37:40;;;;;;;;;;;11.70;99.90;;;;;;5072430;28;19916;-76
2022/06/09 03:40:07;;;;;;;;;;;11.60;99.90;;;;;;5072116;28;19915;-76
2022/06/09 03:42:33;;;;;;;;;;;11.70;99.90;;;;;;5071669;28;19913;-76
2022/06/09 03:44:58;;;;;;;;;;;11.60;99.90;;;;;;5072005;28;20342;-76
2022/06/09 03:47:24;;;;;;;;;;;11.70;99.90;;;;;;5071664;28;19908;-76
2022/06/09 03:49:50;;;;;;;;;;;11.70;99.90;;;;;;5076586;28;19957;-76
2022/06/09 03:52:16;;;;;;;;;;;11.60;99.90;;;;;;5071660;28;19921;-76
2022/06/09 03:54:41;;;;;;;;;;;11.70;99.90;;;;;;5071058;28;20357;-76
2022/06/09 03:57:07;;;;;;;;;;;11.70;99.90;;;;;;5083484;28;19915;-76
2022/06/09 03:59:32;;;;;;;;;;;11.60;99.90;;;;;;5072341;28;20007;-76
2022/06/09 04:01:58;;;;;;;;;;;11.60;99.90;;;;;;5071538;28;19915;-76
2022/06/09 04:04:23;;;;;;;;;;;11.70;99.90;;;;;;5071138;28;19909;-76
2022/06/09 04:06:49;;;;;;;;;;;11.70;99.90;;;;;;5071735;28;20003;-76
2022/06/09 04:09:15;;;;;;;;;;;11.70;99.90;;;;;;5071505;28;19909;-75
2022/06/09 04:11:41;;;;;;;;;;;11.70;99.90;;;;;;5071182;28;20388;-76
2022/06/09 04:14:06;;;;;;;;;;;11.80;99.90;;;;;;5071525;28;19966;-75
2022/06/09 04:16:34;;;;;;;;;;;11.70;99.90;;;;;;5071747;28;19909;-76
2022/06/09 04:19:02;;;;;;;;;;;11.70;99.90;;;;;;5071745;28;19912;-76
2022/06/09 04:21:29;;;;;;;;;;;11.80;99.90;;;;;;5071271;28;20007;-76
2022/06/09 04:23:54;;;;;;;;;;;11.80;99.90;;;;;;5077064;28;20011;-76
2022/06/09 04:26:21;;;;;;;;;;;11.80;99.90;;;;;;5079196;28;19943;-76
2022/06/09 04:28:47;;;;;;;;;;;11.80;99.90;;;;;;5078404;28;20338;-76
2022/06/09 04:31:13;;;;;;;;;;;11.80;99.90;;;;;;5070169;28;20008;-75
2022/06/09 04:33:39;;;;;;;;;;;11.80;99.90;;;;;;5070660;28;19913;-76
2022/06/09 04:36:06;;;;;;;;;;;11.80;99.90;;;;;;5071514;28;20381;-76
2022/06/09 04:38:31;;;;;;;;;;;11.80;99.90;;;;;;5071214;28;19909;-76
2022/06/09 04:40:57;;;;;;;;;;;11.80;99.90;;;;;;5071390;28;20287;-76
2022/06/09 04:43:23;;;;;;;;;;;11.80;99.90;;;;;;5070392;28;19909;-76
2022/06/09 04:45:48;;;;;;;;;;;11.80;99.90;;;;;;5071297;28;19923;-76
2022/06/09 04:48:14;;;;;;;;;;;11.90;99.90;;;;;;5069961;28;20395;-76
2022/06/09 04:50:40;;;;;;;;;;;11.90;99.90;;;;;;5071348;28;19935;-76
2022/06/09 04:53:07;;;;;;;;;;;12.00;99.90;;;;;;5070387;28;20011;-76
2022/06/09 04:55:33;;;;;;;;;;;12.00;99.90;;;;;;5080971;28;19916;-76
2022/06/09 04:57:58;;;;;;;;;;;12.00;99.90;;;;;;5073549;28;19919;-76
2022/06/09 05:00:26;;;;;;;;;;;12.00;99.90;;;;;;5071228;28;19909;-76
2022/06/09 05:02:51;;;;;;;;;;;12.00;99.90;;;;;;5070597;28;20293;-76
2022/06/09 05:05:18;;;;;;;;;;;12.10;99.90;;;;;;5070793;28;19919;-76
2022/06/09 05:07:44;;;;;;;;;;;12.20;99.90;;;;;;5071200;28;19946;-76
2022/06/09 05:10:10;;;;;;;;;;;12.20;99.90;;;;;;5070850;28;19908;-76
2022/06/09 05:12:35;;;;;;;;;;;12.30;99.90;;;;;;5070687;28;19908;-76
2022/06/09 05:15:01;;;;;;;;;;;12.50;99.90;;;;;;5070466;28;19919;-76
2022/06/09 05:17:26;;;;;;;;;;;12.70;99.90;;;;;;5069688;28;20259;-76
2022/06/09 05:19:52;;;;;;;;;;;12.90;99.90;;;;;;5071087;28;20395;-76
2022/06/09 05:22:17;;;;;;;;;;;13.00;99.90;;;;;;5070615;28;20335;-76
2022/06/09 05:24:43;;;;;;;;;;;13.00;99.90;;;;;;5069749;28;19915;-76
2022/06/09 05:27:11;;;;;;;;;;;13.10;99.90;;;;;;5084350;28;19908;-76
2022/06/09 05:29:36;;;;;;;;;;;13.20;99.90;;;;;;5071019;28;19908;-76
2022/06/09 05:32:03;;;;;;;;;;;13.30;99.90;;;;;;5070387;28;20443;-76
2022/06/09 05:34:30;;;;;;;;;;;13.20;99.90;;;;;;5070319;28;20301;-76
2022/06/09 05:36:56;;;;;;;;;;;13.30;99.90;;;;;;5070912;28;19978;-76
2022/06/09 05:44:52;;;;;;;;;;;13.40;99.90;;;;;;5073943;28;19927;-76
2022/06/09 05:47:20;;;;;;;;;;;13.50;99.90;;;;;;5073155;28;19912;-77
2022/06/09 05:49:50;;;;;;;;;;;13.40;99.90;;;;;;5074501;28;19917;-76
2022/06/09 05:52:17;;;;;;;;;;;13.40;99.90;;;;;;5086311;28;19934;-76
2022/06/09 05:54:43;;;;;;;;;;;13.50;99.90;;;;;;5085811;28;20366;-77
2022/06/09 05:57:08;;;;;;;;;;;13.50;99.90;;;;;;5085943;28;19954;-77
2022/06/09 05:59:34;;;;;;;;;;;13.50;99.90;;;;;;5075740;28;19908;-77
2022/06/09 06:02:00;;;;;;;;;;;13.80;99.90;;;;;;5074227;28;19908;-77
2022/06/09 06:04:26;;;;;;;;;;;14.00;99.90;;;;;;5074817;28;19926;-76
2022/06/09 06:06:51;;;;;;;;;;;13.80;99.90;;;;;;5074325;28;20315;-76
2022/06/09 06:09:18;;;;;;;;;;;13.90;99.90;;;;;;5073717;28;19915;-76
2022/06/09 06:11:44;;;;;;;;;;;14.00;99.90;;;;;;5073670;28;20364;-76
2022/06/09 06:14:10;;;;;;;;;;;14.10;99.90;;;;;;5073493;28;20376;-76
2022/06/09 06:16:36;;;;;;;;;;;13.90;99.90;;;;;;5074001;28;19912;-76
2022/06/09 06:19:03;;;;;;;;;;;14.00;99.90;;;;;;5073896;28;19940;-76
2022/06/09 06:21:28;;;;;;;;;;;14.00;99.90;;;;;;5085652;28;19916;-76
2022/06/09 06:23:55;;;;;;;;;;;14.10;99.90;;;;;;5090412;28;19909;-76
2022/06/09 06:26:21;;;;;;;;;;;14.30;99.90;;;;;;5083930;28;19909;-76
2022/06/09 06:28:46;;;;;;;;;;;14.40;99.90;;;;;;5074013;28;20365;-77
2022/06/09 06:31:12;;;;;;;;;;;14.90;99.90;;;;;;5073715;28;20262;-76
2022/06/09 06:33:37;;;;;;;;;;;14.90;99.90;;;;;;5071501;28;19916;-76
2022/06/09 06:36:03;;;;;;;;;;;15.50;99.90;;;;;;5073280;28;20213;-76
2022/06/09 06:38:29;;;;;;;;;;;15.80;99.90;;;;;;5073323;28;20332;-76
2022/06/09 06:40:55;;;;;;;;;;;17.00;99.90;;;;;;5073621;28;19966;-76
2022/06/09 06:43:22;;;;;;;;;;;17.40;99.90;;;;;;5072637;28;19909;-77
2022/06/09 06:45:47;;;;;;;;;;;17.00;99.90;;;;;;5073621;28;19930;-77
2022/06/09 06:48:13;;;;;;;;;;;17.10;99.90;;;;;;5073620;28;19915;-77
2022/06/09 06:50:38;;;;;;;;;;;17.90;99.90;;;;;;5073549;28;20147;-76
2022/06/09 06:53:05;;;;;;;;;;;17.30;99.90;;;;;;5072312;28;20378;-76
2022/06/09 06:55:30;;;;;;;;;;;16.60;99.90;;;;;;5080335;28;19937;-76
2022/06/09 06:57:56;;;;;;;;;;;15.40;99.90;;;;;;5081393;28;19909;-76
2022/06/09 07:00:22;;;;;;;;;;;14.80;99.90;;;;;;5086417;28;19908;-76
2022/06/09 07:02:48;;;;;;;;;;;14.40;99.90;;;;;;5072498;28;19909;-77
2022/06/09 07:05:15;;;;;;;;;;;13.70;99.90;;;;;;5091588;28;19908;-76
2022/06/09 07:07:41;;;;;;;;;;;13.60;99.90;;;;;;5080437;28;19915;-76
2022/06/09 07:10:07;;;;;;;;;;;15.50;99.90;;;;;;5073735;28;20498;-76
2022/06/09 07:12:33;;;;;;;;;;;16.40;99.90;;;;;;5079101;28;19908;-76
2022/06/09 07:14:58;;;;;;;;;;;16.70;99.90;;;;;;5083699;28;19954;-76
2022/06/09 07:17:24;;;;;;;;;;;17.20;99.90;;;;;;5080994;28;19908;-76
2022/06/09 07:19:50;;;;;;;;;;;16.90;99.90;;;;;;5079433;28;19917;-76
2022/06/09 07:22:15;;;;;;;;;;;17.60;99.90;;;;;;5077799;28;20010;-76
2022/06/09 07:24:41;;;;;;;;;;;17.40;99.90;;;;;;5087344;28;19908;-76
2022/06/09 07:27:07;;;;;;;;;;;17.50;99.90;;;;;;5077900;28;19908;-77
2022/06/09 07:29:33;;;;;;;;;;;18.40;99.90;;;;;;5073456;28;20041;-77
2022/06/09 07:32:00;;;;;;;;;;;18.80;99.90;;;;;;5089640;28;20449;-77
2022/06/09 07:34:26;;;;;;;;;;;19.10;99.90;;;;;;5090671;28;19913;-77
2022/06/09 07:36:51;;;;;;;;;;;19.20;99.90;;;;;;5091769;28;20314;-77
2022/06/09 07:39:17;;;;;;;;;;;19.20;99.90;;;;;;5080318;28;19908;-77
2022/06/09 07:41:42;;;;;;;;;;;19.70;99.90;;;;;;5076133;28;19908;-77
2022/06/09 07:44:08;;;;;;;;;;;18.70;99.90;;;;;;5076382;28;19999;-77
2022/06/09 07:46:34;;;;;;;;;;;19.00;99.90;;;;;;5072381;28;19915;-77
2022/06/09 07:49:00;;;;;;;;;;;19.30;99.90;;;;;;5075104;28;19912;-77
2022/06/09 07:51:27;;;;;;;;;;;17.70;99.90;;;;;;5091017;28;19908;-76
2022/06/09 07:53:52;;;;;;;;;;;17.00;99.90;;;;;;5088358;28;19924;-76
2022/06/09 07:56:18;;;;;;;;;;;18.50;99.90;;;;;;5083425;28;19908;-77
2022/06/09 07:58:43;;;;;;;;;;;18.90;99.30;;;;;;5087254;28;19908;-77
2022/06/09 08:01:10;;;;;;;;;;;19.50;99.90;;;;;;5073681;28;20713;-77
2022/06/09 08:03:36;;;;;;;;;;;20.90;98.50;;;;;;5083732;28;19908;-76
2022/06/09 08:06:01;;;;;;;;;;;19.40;98.80;;;;;;5074665;28;19912;-76
2022/06/09 08:08:27;;;;;;;;;;;18.50;99.90;;;;;;5068808;28;20277;-78
2022/06/09 08:10:52;;;;;;;;;;;18.30;98.80;;;;;;5074341;28;19909;-80
2022/06/09 08:13:18;;;;;;;;;;;19.20;98.60;;;;;;5085810;28;19912;-78
2022/06/09 08:15:45;;;;;;;;;;;19.90;96.50;;;;;;5091304;28;19912;-78
2022/06/09 08:18:11;;;;;;;;;;;18.70;99.10;;;;;;5091190;28;19908;-78
2022/06/09 08:20:37;;;;;;;;;;;19.50;99.10;;;;;;5091467;28;19908;-77
2022/06/09 08:23:06;;;;;;;;;;;20.70;95.50;;;;;;5090307;28;19945;-77
2022/06/09 08:25:31;;;;;;;;;;;21.00;96.20;;;;;;5081687;28;20304;-77
2022/06/09 08:27:57;;;;;;;;;;;18.80;96.50;;;;;;5080076;28;19966;-77
2022/06/09 08:30:23;;;;;;;;;;;19.20;97.60;;;;;;5071490;28;19915;-77
2022/06/09 08:32:48;;;;;;;;;;;21.20;95.80;;;;;;5076505;28;19908;-77
2022/06/09 08:35:16;;;;;;;;;;;19.60;96.00;;;;;;5069700;28;20050;-77
2022/06/09 08:37:42;;;;;;;;;;;20.20;94.90;;;;;;5078298;28;20005;-77
2022/06/09 08:40:11;;;;;;;;;;;21.00;92.40;;;;;;5062862;28;20285;-77
2022/06/09 08:42:48;;;;;;;;;;;21.60;96.30;;;;;;5075492;28;19951;-77
2022/06/09 08:45:17;;;;;;;;;;;21.20;93.10;;;;;;5070417;28;19939;-77
2022/06/09 08:47:48;;;;;;;;;;;20.00;95.80;;;;;;5071202;28;20396;-77
2022/06/09 08:50:17;;;;;;;;;;;21.80;91.40;;;;;;5071379;28;19909;-77
2022/06/09 08:52:49;;;;;;;;;;;21.20;91.80;;;;;;5071354;28;20262;-77
2022/06/09 08:55:33;;;;;;;;;;;19.70;94.20;;;;;;5075753;28;20010;-77
2022/06/09 08:58:01;;;;;;;;;;;19.90;93.50;;;;;;5079478;28;19915;-77
2022/06/09 09:00:29;;;;;;;;;;;20.60;96.70;;;;;;5071602;28;19966;-77
2022/06/09 09:02:59;;;;;;;;;;;21.90;92.10;;;;;;5069880;28;19908;-77
2022/06/09 09:05:32;;;;;;;;;;;22.20;90.40;;;;;;5069674;28;20318;-77
2022/06/09 09:08:00;;;;;;;;;;;20.80;91.40;;;;;;5090275;28;19908;-77
2022/06/09 09:10:31;;;;;;;;;;;20.20;91.70;;;;;;5090110;28;19995;-77
2022/06/09 09:12:59;;;;;;;;;;;21.60;92.90;;;;;;5090162;28;19919;-77
2022/06/09 09:15:30;;;;;;;;;;;20.80;91.40;;;;;;5090789;28;20396;-77
2022/06/09 09:18:15;;;;;;;;;;;20.70;93.20;;;;;;5074890;28;19913;-77
2022/06/09 09:20:56;;;;;;;;;;;20.90;92.60;;;;;;5073185;28;19913;-77
2022/06/09 09:23:33;;;;;;;;;;;20.80;92.60;;;;;;5072555;28;19913;-77
2022/06/09 09:26:21;;;;;;;;;;;19.90;95.60;;;;;;5090120;28;19909;-77
2022/06/09 09:28:50;;;;;;;;;;;20.20;93.00;;;;;;5074593;28;20259;-77
2022/06/09 09:31:28;;;;;;;;;;;18.80;92.30;;;;;;5074200;28;19952;-77
2022/06/09 09:33:55;;;;;;;;;;;19.30;95.90;;;;;;5074239;28;19920;-77
2022/06/09 09:36:26;;;;;;;;;;;19.20;92.30;;;;;;5074253;28;19913;-77
2022/06/09 09:39:12;;;;;;;;;;;18.70;92.90;;;;;;5070770;28;19912;-77
2022/06/09 09:41:39;;;;;;;;;;;17.90;95.10;;;;;;5042669;28;19908;-77
2022/06/09 09:44:30;;;;;;;;;;;19.60;95.90;;;;;;5084703;28;19908;-77
2022/06/09 09:46:58;;;;;;;;;;;21.80;92.80;;;;;;5080333;28;20366;-77
2022/06/09 09:49:25;;;;;;;;;;;22.00;90.60;;;;;;5093786;28;19908;-77
2022/06/09 09:51:52;;;;;;;;;;;22.50;84.30;;;;;;5093795;28;19912;-77
2022/06/09 09:54:18;;;;;;;;;;;23.20;90.00;;;;;;5088515;28;19970;-77
2022/06/09 09:56:43;;;;;;;;;;;21.80;84.60;;;;;;5086218;28;19924;-77
2022/06/09 09:59:26;;;;;;;;;;;19.80;91.10;;;;;;5076820;28;20281;-77
2022/06/09 10:10:19;;;;;;;;;;;17.80;95.50;;;;;;5080670;28;19915;-77
2022/06/09 10:12:45;;;;;;;;;;;17.20;95.10;;;;;;5073684;28;19908;-77
2022/06/09 10:15:10;;;;;;;;;;;18.50;93.10;;;;;;5073569;28;19972;-78
2022/06/09 10:17:39;;;;;;;;;;;20.50;93.40;;;;;;5073942;28;20274;-77
2022/06/09 10:20:08;;;;;;;;;;;22.10;91.50;;;;;;5087154;28;19908;-77
2022/06/09 10:22:38;;;;;;;;;;;22.40;88.40;;;;;;5073454;28;19916;-77
2022/06/09 10:25:12;;;;;;;;;;;21.60;85.10;;;;;;5081117;28;19915;-77
2022/06/09 10:27:41;;;;;;;;;;;22.70;91.50;;;;;;5080149;28;20360;-77
2022/06/09 10:30:10;;;;;;;;;;;21.10;79.10;;;;;;5073787;28;19909;-76
2022/06/09 10:32:42;;;;;;;;;;;19.70;89.20;;;;;;5073453;28;20419;-76
2022/06/09 10:35:13;;;;;;;;;;;18.70;91.00;;;;;;5073187;28;19986;-76
2022/06/09 10:37:49;;;;;;;;;;;18.50;89.90;;;;;;5073341;28;20003;-76
2022/06/09 10:40:28;;;;;;;;;;;19.10;86.20;;;;;;5063443;28;19962;-76
2022/06/09 10:43:08;;;;;;;;;;;21.80;86.70;;;;;;5094623;28;19908;-76
2022/06/09 10:45:42;;;;;;;;;;;22.90;85.20;;;;;;5073005;28;19908;-77
2022/06/09 10:56:46;;;;;;;;;;;21.40;75.20;;;;;;5092124;28;19915;-78
2022/06/09 10:59:26;;;;;;;;;;;20.40;84.30;;;;;;5071353;28;20570;-78
2022/06/09 11:01:52;;;;;;;;;;;22.00;85.70;;;;;;5072683;28;20015;-78
2022/06/09 11:04:18;;;;;;;;;;;20.70;81.80;;;;;;5072334;28;19999;-77
2022/06/09 11:06:46;;;;;;;;;;;19.20;84.60;;;;;;5073066;28;19908;-77
2022/06/09 11:09:17;;;;;;;;;;;18.70;89.30;;;;;;5072684;28;19908;-76
2022/06/09 11:11:43;;;;;;;;;;;17.90;90.70;;;;;;5072276;28;19912;-76
2022/06/09 11:14:17;;;;;;;;;;;17.90;91.10;;;;;;5068535;28;20302;-76
2022/06/09 11:16:58;;;;;;;;;;;17.90;93.00;;;;;;5085463;28;19908;-77
2022/06/09 11:19:41;;;;;;;;;;;17.80;91.20;;;;;;5079397;28;19955;-77
2022/06/09 11:22:19;;;;;;;;;;;18.10;92.20;;;;;;5075275;28;20243;-76
2022/06/09 11:24:51;;;;;;;;;;;18.80;94.90;;;;;;5073500;28;19908;-77
2022/06/09 11:27:16;;;;;;;;;;;20.80;91.40;;;;;;5081667;28;19909;-76
2022/06/09 11:30:00;;;;;;;;;;;21.80;87.70;;;;;;5074281;28;19954;-77
2022/06/09 11:32:26;;;;;;;;;;;22.40;83.80;;;;;;5080244;28;19916;-77
2022/06/09 11:34:51;;;;;;;;;;;21.90;83.90;;;;;;5081108;28;20292;-77
2022/06/09 11:37:29;;;;;;;;;;;22.30;86.80;;;;;;5079217;28;19908;-76
2022/06/09 11:39:57;;;;;;;;;;;20.40;85.90;;;;;;5068174;28;19987;-76
2022/06/09 11:42:27;;;;;;;;;;;20.00;88.00;;;;;;5079491;28;20475;-77
2022/06/09 11:44:55;;;;;;;;;;;19.60;83.80;;;;;;5076923;28;20007;-76
2022/06/09 11:47:24;;;;;;;;;;;18.70;88.20;;;;;;5073878;28;19919;-76
2022/06/09 11:49:52;;;;;;;;;;;20.40;86.50;;;;;;5080604;28;19912;-77
2022/06/09 11:52:36;;;;;;;;;;;21.60;80.60;;;;;;5073399;28;19955;-77
2022/06/09 11:55:04;;;;;;;;;;;19.70;84.10;;;;;;5077860;28;19919;-76
2022/06/09 11:57:49;;;;;;;;;;;19.00;85.60;;;;;;5079397;28;19959;-76
2022/06/09 12:00:26;;;;;;;;;;;20.50;79.80;;;;;;5075250;28;19931;-76
2022/06/09 12:03:11;;;;;;;;;;;20.60;87.30;;;;;;5078984;28;19908;-76
2022/06/09 12:05:46;;;;;;;;;;;18.50;83.60;;;;;;5074381;28;19966;-76
2022/06/09 12:08:11;;;;;;;;;;;17.90;84.00;;;;;;5084385;28;19947;-76
2022/06/09 12:10:40;;;;;;;;;;;17.80;87.70;;;;;;5072762;28;20724;-76
2022/06/09 12:13:12;;;;;;;;;;;17.70;86.90;;;;;;5075761;28;20003;-76
2022/06/09 12:15:46;;;;;;;;;;;18.20;90.60;;;;;;5072031;28;20376;-76
2022/06/09 12:18:11;;;;;;;;;;;19.40;84.60;;;;;;5083938;28;19960;-76
2022/06/09 12:20:42;;;;;;;;;;;19.50;85.70;;;;;;5072834;28;19999;-77
2022/06/09 12:23:08;;;;;;;;;;;19.00;83.00;;;;;;5076490;28;19916;-77
2022/06/09 12:25:36;;;;;;;;;;;19.60;77.10;;;;;;5081832;28;19938;-77
2022/06/09 12:28:22;;;;;;;;;;;20.90;80.90;;;;;;5086847;28;20460;-77
2022/06/09 12:31:06;;;;;;;;;;;24.90;71.10;;;;;;5084306;28;19916;-76
2022/06/09 12:33:32;;;;;;;;;;;22.30;72.90;;;;;;5079061;28;19912;-77
2022/06/09 12:36:02;;;;;;;;;;;22.00;74.00;;;;;;5082380;28;19999;-77
2022/06/09 12:38:42;;;;;;;;;;;21.50;73.90;;;;;;5082908;28;19995;-77
2022/06/09 12:41:23;;;;;;;;;;;20.30;75.10;;;;;;5070006;28;19916;-76
2022/06/09 12:44:00;;;;;;;;;;;23.50;73.60;;;;;;5077757;28;19973;-76
2022/06/09 12:46:27;;;;;;;;;;;25.70;71.40;;;;;;5072861;28;20285;-76
2022/06/09 12:48:54;;;;;;;;;;;28.30;65.70;;;;;;5071234;28;19915;-77
2022/06/09 12:51:24;;;;;;;;;;;22.20;73.70;;;;;;5070357;28;20357;-76
2022/06/09 12:53:58;;;;;;;;;;;18.90;79.90;;;;;;5072080;28;20014;-76
2022/06/09 12:56:24;;;;;;;;;;;19.70;82.30;;;;;;5085019;28;19908;-76
2022/06/09 12:58:50;;;;;;;;;;;19.40;82.90;;;;;;5075168;28;19912;-76
2022/06/09 13:01:20;;;;;;;;;;;18.80;85.10;;;;;;5088626;28;20003;-76
2022/06/09 13:03:49;;;;;;;;;;;18.20;85.60;;;;;;5090413;28;19980;-76
2022/06/09 13:06:27;;;;;;;;;;;19.70;79.90;;;;;;5089128;28;19908;-76
2022/06/09 13:09:01;;;;;;;;;;;19.20;80.90;;;;;;5071011;28;19961;-76
2022/06/09 13:14:20;;;;;;;;;;;25.00;67.60;;;;;;5070375;28;19919;-76
2022/06/09 13:16:47;;;;;;;;;;;26.30;71.20;;;;;;5070877;28;19908;-76
2022/06/09 13:19:16;;;;;;;;;;;26.70;66.10;;;;;;5070513;28;20415;-76
2022/06/09 13:21:42;;;;;;;;;;;28.20;62.10;;;;;;5070393;28;19924;-76
2022/06/09 13:24:17;;;;;;;;;;;26.40;57.50;;;;;;5074160;28;20276;-76
2022/06/09 13:26:44;;;;;;;;;;;28.80;57.60;;;;;;5080763;28;19916;-76
2022/06/09 13:29:29;;;;;;;;;;;23.40;69.00;;;;;;5075124;28;19917;-76
2022/06/09 13:32:13;;;;;;;;;;;20.30;73.90;;;;;;5070503;28;19908;-76
2022/06/09 13:34:42;;;;;;;;;;;24.00;75.10;;;;;;5070297;28;19919;-77
2022/06/09 13:37:18;;;;;;;;;;;23.10;65.30;;;;;;5070790;28;19974;-76
2022/06/09 13:40:00;;;;;;;;;;;20.50;73.90;;;;;;5065959;28;19956;-76
2022/06/09 13:42:27;;;;;;;;;;;19.50;77.90;;;;;;5081708;28;19908;-76
2022/06/09 13:44:59;;;;;;;;;;;18.70;82.30;;;;;;5073254;28;19908;-76
2022/06/09 13:47:26;;;;;;;;;;;18.30;84.60;;;;;;5076899;28;19908;-76
2022/06/09 13:49:55;;;;;;;;;;;17.90;83.90;;;;;;5070168;28;19908;-76
2022/06/09 13:52:28;;;;;;;;;;;17.80;85.40;;;;;;5070351;28;19912;-76
2022/06/09 13:54:55;;;;;;;;;;;17.80;85.00;;;;;;5071586;28;19920;-76
2022/06/09 13:57:25;;;;;;;;;;;18.00;86.80;;;;;;5080950;28;20365;-76
2022/06/09 13:59:51;;;;;;;;;;;17.90;84.40;;;;;;5069341;28;19919;-75
2022/06/09 14:02:19;;;;;;;;;;;17.60;87.00;;;;;;5074108;28;19908;-76
2022/06/09 14:04:45;;;;;;;;;;;17.00;91.00;;;;;;5080240;28;19908;-75
2022/06/09 14:07:15;;;;;;;;;;;16.30;91.20;;;;;;5074193;28;20258;-75
2022/06/09 14:09:40;;;;;;;;;;;16.50;93.40;;;;;;5074007;28;19912;-76
2022/06/09 14:12:06;;;;;;;;;;;16.30;92.70;;;;;;5073288;28;19909;-76
2022/06/09 14:14:31;;;;;;;;;;;16.00;94.70;;;;;;5073531;28;19916;-76
2022/06/09 14:16:57;;;;;;;;;;;15.70;95.20;;;;;;5083558;28;20389;-77
2022/06/09 14:19:22;;;;;;;;;;;15.60;97.20;;;;;;5079507;28;19966;-76
2022/06/09 14:21:48;;;;;;;;;;;15.70;97.10;;;;;;5073044;28;19923;-76
2022/06/09 14:24:18;;;;;;;;;;;15.90;97.00;;;;;;5074590;28;19915;-75
2022/06/09 14:26:45;;;;;;;;;;;16.00;95.50;;;;;;5081423;28;19908;-76
2022/06/09 14:29:11;;;;;;;;;;;16.20;95.00;;;;;;5077746;28;19916;-76
2022/06/09 14:31:37;;;;;;;;;;;16.30;94.80;;;;;;5072674;28;19912;-76
2022/06/09 14:34:03;;;;;;;;;;;16.20;93.60;;;;;;5071733;28;20251;-76
2022/06/09 14:36:29;;;;;;;;;;;16.50;92.90;;;;;;5073800;28;19991;-76
2022/06/09 14:38:55;;;;;;;;;;;17.00;92.90;;;;;;5072878;28;19909;-76
2022/06/09 14:41:21;;;;;;;;;;;17.50;92.80;;;;;;5089274;28;19912;-76
2022/06/09 14:43:47;;;;;;;;;;;18.00;91.60;;;;;;5080501;28;19916;-76
2022/06/09 14:46:14;;;;;;;;;;;17.80;91.70;;;;;;5077302;28;19909;-76
2022/06/09 14:48:40;;;;;;;;;;;18.10;92.60;;;;;;5072144;28;19913;-76
2022/06/09 14:51:08;;;;;;;;;;;17.80;92.50;;;;;;5072895;28;19915;-76